Time;durP1;ratioP1;P1;durP2;ratioP2;P2;SDS_P1;SDS_P2;PMS_P1;PMS_P2;Temp;Humidity;BMP_temperature;BMP_pressure;BME280_temperature;BME280_humidity;BME280_pressure;Samples;Min_cycle;Max_cycle;Signal;HPM_P1;HPM_P2
2022/04/19 00:00:44;;;;;;;0.60;0.60;;;;;;;4.63;57.83;99342.75;4767669;30;20083;-83
2022/04/19 00:03:12;;;;;;;0.60;0.60;;;;;;;4.62;58.19;99333.91;4753438;30;20098;-84
2022/04/19 00:05:41;;;;;;;0.60;0.60;;;;;;;4.57;58.41;99331.00;4753666;30;20051;-83
2022/04/19 00:08:10;;;;;;;0.50;0.50;;;;;;;4.53;58.44;99335.94;4753372;30;20079;-85
2022/04/19 00:10:37;;;;;;;0.60;0.60;;;;;;;4.53;58.86;99332.41;4753645;30;20492;-84
2022/04/19 00:13:06;;;;;;;0.60;0.60;;;;;;;4.56;58.72;99332.03;4753696;30;20052;-83
2022/04/19 00:15:34;;;;;;;0.60;0.60;;;;;;;4.57;58.94;99337.16;4767344;30;20071;-83
2022/04/19 00:18:03;;;;;;;0.60;0.60;;;;;;;4.56;58.86;99332.03;4753526;30;20056;-83
2022/04/19 00:20:31;;;;;;;0.50;0.50;;;;;;;4.55;58.94;99328.50;4753469;30;20060;-84
2022/04/19 00:22:58;;;;;;;0.60;0.60;;;;;;;4.53;59.06;99327.06;4752054;30;20125;-84
2022/04/19 00:25:25;;;;;;;0.60;0.60;;;;;;;4.46;59.32;99326.22;4753348;30;20289;-82
2022/04/19 00:27:52;;;;;;;0.60;0.60;;;;;;;4.46;59.57;99326.22;4752060;30;20048;-84
2022/04/19 00:30:19;;;;;;;0.60;0.60;;;;;;;4.48;59.48;99326.81;4752506;30;20114;-84
2022/04/19 00:32:46;;;;;;;0.60;0.60;;;;;;;4.45;59.62;99319.22;4751936;30;20094;-83
2022/04/19 00:35:13;;;;;;;0.50;0.50;;;;;;;4.44;59.85;99326.41;4753093;30;20151;-84
2022/04/19 00:37:40;;;;;;;0.60;0.60;;;;;;;4.47;59.78;99325.19;4767088;30;20130;-83
2022/04/19 00:40:09;;;;;;;0.60;0.60;;;;;;;4.46;60.11;99328.91;4787442;30;20397;-83
2022/04/19 00:42:36;;;;;;;0.52;0.52;;;;;;;4.43;60.05;99324.78;4789018;29;20104;-83
2022/04/19 00:45:05;;;;;;;0.50;0.50;;;;;;;4.45;60.01;99319.22;4788439;30;20320;-83
2022/04/19 00:47:33;;;;;;;0.60;0.60;;;;;;;4.42;60.37;99312.41;4788542;29;20535;-84
2022/04/19 00:50:06;;;;;;;0.50;0.50;;;;;;;4.36;60.46;99309.72;4788397;29;20059;-84
2022/04/19 00:52:37;;;;;;;0.60;0.60;;;;;;;4.36;60.68;99312.41;4788206;29;20507;-81
2022/04/19 00:55:09;;;;;;;0.60;0.60;;;;;;;4.32;60.89;99307.41;4787511;30;20064;-84
2022/04/19 00:57:42;;;;;;;0.60;0.60;;;;;;;4.28;61.01;99308.00;4787477;30;20086;-84
2022/04/19 01:00:13;;;;;;;0.50;0.50;;;;;;;4.28;61.25;99313.34;4800509;30;20047;-82
2022/04/19 01:03:01;;;;;;;0.60;0.60;;;;;;;4.26;61.15;99308.22;4786642;29;20063;-83
2022/04/19 01:05:33;;;;;;;0.50;0.50;;;;;;;4.26;61.23;99307.41;4787255;30;20588;-84
2022/04/19 01:08:01;;;;;;;0.60;0.60;;;;;;;4.23;61.44;99305.94;4787326;30;20059;-84
2022/04/19 01:10:32;;;;;;;0.60;0.60;;;;;;;4.21;61.72;99309.84;4802282;29;20058;-84
2022/04/19 01:13:17;;;;;;;0.60;0.60;;;;;;;4.22;61.82;99306.94;4802355;29;20059;-84
2022/04/19 01:15:55;;;;;;;0.60;0.60;;;;;;;4.25;61.73;99303.88;4787180;30;20055;-84
2022/04/19 01:18:24;;;;;;;0.60;0.60;;;;;;;4.22;61.79;99296.25;4772531;30;20047;-83
2022/04/19 01:21:02;;;;;;;0.57;0.57;;;;;;;4.17;62.13;99296.03;4786172;29;20059;-84
2022/04/19 01:23:29;;;;;;;0.50;0.50;;;;;;;4.13;62.30;99289.44;4788685;30;20142;-82
2022/04/19 01:25:59;;;;;;;0.55;0.55;;;;;;;4.08;62.40;99290.03;4788112;30;20051;-84
2022/04/19 01:28:29;;;;;;;0.60;0.60;;;;;;;4.08;62.46;99286.53;4786814;30;20047;-83
2022/04/19 01:30:57;;;;;;;0.60;0.60;;;;;;;4.08;62.54;99287.34;4786992;30;20048;-84
2022/04/19 01:33:36;;;;;;;0.60;0.60;;;;;;;4.06;62.50;99283.22;4787001;30;20081;-83
2022/04/19 01:36:09;;;;;;;0.60;0.60;;;;;;;4.00;62.92;99281.31;4786483;30;20052;-83
2022/04/19 01:38:40;;;;;;;0.55;0.55;;;;;;;3.91;63.06;99280.66;4787066;30;20108;-83
2022/04/19 01:41:08;;;;;;;0.60;0.60;;;;;;;3.86;63.48;99277.75;4787667;29;20654;-84
2022/04/19 01:43:47;;;;;;;0.50;0.50;;;;;;;3.82;63.66;99288.00;4786438;30;20135;-83
2022/04/19 01:46:17;;;;;;;0.60;0.60;;;;;;;3.80;63.70;99295.38;4786328;30;20147;-84
2022/04/19 01:48:45;;;;;;;0.60;0.60;;;;;;;3.79;63.68;99292.88;4786664;30;20575;-83
2022/04/19 01:51:14;;;;;;;0.60;0.60;;;;;;;3.78;63.68;99294.72;4786267;30;20050;-84
2022/04/19 01:53:42;;;;;;;0.55;0.55;;;;;;;3.72;63.77;99292.81;4786306;30;20093;-84
2022/04/19 01:56:09;;;;;;;0.60;0.60;;;;;;;3.69;63.41;99295.88;4785994;30;20051;-84
2022/04/19 01:59:00;;;;;;;0.60;0.60;;;;;;;3.64;63.93;99298.31;4781722;30;20136;-83
2022/04/19 02:01:49;;;;;;;0.57;0.57;;;;;;;3.56;64.00;99301.13;4785901;30;20056;-83
2022/04/19 02:04:18;;;;;;;0.60;0.60;;;;;;;3.54;64.41;99303.16;4785911;30;20565;-84
2022/04/19 02:06:46;;;;;;;0.60;0.60;;;;;;;3.48;64.69;99310.06;4801023;29;20087;-83
2022/04/19 02:09:13;;;;;;;0.60;0.60;;;;;;;3.43;64.77;99318.66;4785576;30;20127;-83
2022/04/19 02:11:43;;;;;;;0.60;0.60;;;;;;;3.40;64.82;99311.03;4771531;30;20066;-84
2022/04/19 02:14:31;;;;;;;0.60;0.60;;;;;;;3.35;64.63;99310.78;4785840;30;20051;-83
2022/04/19 02:16:58;;;;;;;0.60;0.60;;;;;;;3.31;64.63;99308.69;4786157;30;20158;-84
2022/04/19 02:19:25;;;;;;;0.60;0.60;;;;;;;3.26;64.50;99310.06;4800667;29;20055;-83
2022/04/19 02:21:52;;;;;;;0.60;0.60;;;;;;;3.23;64.79;99309.63;4771426;30;20054;-83
2022/04/19 02:24:19;;;;;;;0.55;0.55;;;;;;;3.17;64.92;99313.06;4800284;29;20137;-83
2022/04/19 02:26:47;;;;;;;0.60;0.60;;;;;;;3.19;64.90;99319.00;4785991;30;20051;-83
2022/04/19 02:29:15;;;;;;;0.60;0.60;;;;;;;3.18;64.66;99322.69;4786429;30;20059;-84
2022/04/19 02:31:46;;;;;;;0.60;0.60;;;;;;;3.18;64.82;99323.53;4785717;30;20059;-83
2022/04/19 02:34:18;;;;;;;0.65;0.65;;;;;;;3.20;64.92;99326.00;4770385;30;20086;-83
2022/04/19 02:36:47;;;;;;;0.60;0.60;;;;;;;3.23;64.83;99330.97;4785465;30;20058;-83
2022/04/19 02:39:14;;;;;;;0.60;0.60;;;;;;;3.24;64.56;99338.78;4770463;30;20077;-83
2022/04/19 02:41:41;;;;;;;0.60;0.60;;;;;;;3.24;64.65;99337.94;4785674;30;20519;-83
2022/04/19 02:44:09;;;;;;;0.60;0.60;;;;;;;3.25;64.64;99344.94;4785440;30;20061;-83
2022/04/19 02:46:39;;;;;;;0.55;0.55;;;;;;;3.25;64.57;99352.94;4785625;30;20728;-83
2022/04/19 02:49:09;;;;;;;0.60;0.60;;;;;;;3.29;64.43;99362.22;4785061;30;20047;-83
2022/04/19 02:51:36;;;;;;;0.60;0.60;;;;;;;3.29;64.45;99356.88;4783473;30;20063;-88
2022/04/19 02:54:03;;;;;;;0.65;0.65;;;;;;;3.30;64.60;99352.38;4787449;30;20055;-87
2022/04/19 02:56:30;;;;;;;0.60;0.60;;;;;;;3.26;64.65;99368.75;4801727;29;20082;-86
2022/04/19 02:59:00;;;;;;;0.50;0.50;;;;;;;3.25;64.59;99372.44;4786066;30;20047;-87
2022/04/19 03:01:27;;;;;;;0.60;0.60;;;;;;;3.26;64.72;99379.41;4786914;30;20073;-89
2022/04/19 03:03:55;;;;;;;0.60;0.60;;;;;;;3.24;64.75;99378.81;4797001;30;20051;-86
2022/04/19 03:06:22;;;;;;;0.60;0.60;;;;;;;3.27;64.80;99380.25;4782630;30;20124;-86
2022/04/19 03:08:49;;;;;;;0.60;0.60;;;;;;;3.32;64.67;99377.84;4801143;29;20082;-86
2022/04/19 03:11:16;;;;;;;0.60;0.60;;;;;;;3.32;64.57;99377.00;4802225;30;20112;-83
2022/04/19 03:13:43;;;;;;;0.60;0.60;;;;;;;3.32;64.91;99372.53;4794374;30;20071;-82
2022/04/19 03:16:15;;;;;;;0.60;0.60;;;;;;;3.38;64.83;99377.09;4787112;30;20144;-80
2022/04/19 03:18:43;;;;;;;0.70;0.70;;;;;;;3.41;64.59;99375.88;4787176;30;20440;-83
2022/04/19 03:21:11;;;;;;;0.60;0.60;;;;;;;3.41;64.74;99371.38;4785993;30;20127;-82
2022/04/19 03:29:14;;;;;;;0.70;0.70;;;;;;;3.56;64.55;99373.16;4787246;29;20431;-82
2022/04/19 03:31:41;;;;;;;0.60;0.60;;;;;;;3.59;64.71;99362.09;4769269;30;20151;-81
2022/04/19 03:34:09;;;;;;;0.60;0.60;;;;;;;3.61;64.73;99360.09;4782333;30;20437;-82
2022/04/19 03:36:36;;;;;;;0.60;0.60;;;;;;;3.67;64.98;99360.16;4767077;30;20516;-83
2022/04/19 03:39:04;;;;;;;0.60;0.60;;;;;;;3.76;65.04;99358.16;4781738;30;20154;-81
2022/04/19 03:41:32;;;;;;;0.60;0.60;;;;;;;3.85;65.29;99361.56;4780977;30;20109;-81
2022/04/19 03:44:02;;;;;;;0.60;0.60;;;;;;;3.89;65.22;99368.97;4767841;30;20063;-82
2022/04/19 03:46:29;;;;;;;0.60;0.60;;;;;;;4.00;65.20;99366.78;4784296;30;20543;-85
2022/04/19 03:49:00;;;;;;;0.50;0.50;;;;;;;4.09;64.81;99365.63;4770040;30;20056;-82
2022/04/19 03:51:32;;;;;;;0.60;0.60;;;;;;;4.14;65.13;99363.22;4769901;30;20051;-83
2022/04/19 03:54:00;;;;;;;0.65;0.65;;;;;;;4.20;65.07;99362.41;4769627;30;20066;-81
2022/04/19 03:56:36;;;;;;;0.60;0.60;;;;;;;4.26;64.92;99355.50;4751889;30;20063;-82
2022/04/19 03:59:09;;;;;;;0.60;0.60;;;;;;;4.31;65.38;99353.88;4781484;30;20162;-84
2022/04/19 04:01:46;;;;;;;0.60;0.60;;;;;;;4.34;64.81;99348.13;4766398;30;20056;-86
2022/04/19 04:04:14;;;;;;;0.60;0.60;;;;;;;4.37;65.08;99360.28;4780818;30;20047;-81
2022/04/19 04:06:43;;;;;;;0.60;0.60;;;;;;;4.39;65.11;99352.91;4751175;30;20435;-80
2022/04/19 04:09:13;;;;;;;0.60;0.60;;;;;;;4.40;65.09;99351.03;4751024;30;20052;-80
2022/04/19 04:11:42;;;;;;;0.50;0.50;;;;;;;4.45;64.83;99352.09;4766162;30;20063;-83
2022/04/19 04:14:17;;;;;;;0.60;0.60;;;;;;;4.48;64.78;99353.56;4765883;30;20474;-84
2022/04/19 04:16:45;;;;;;;0.60;0.60;;;;;;;4.48;64.90;99345.53;4780705;30;20355;-83
2022/04/19 04:19:14;;;;;;;0.60;0.60;;;;;;;4.49;65.05;99352.56;4768006;30;20071;-82
2022/04/19 04:21:42;;;;;;;0.60;0.60;;;;;;;4.52;65.16;99352.97;4783979;30;20059;-81
2022/04/19 04:24:10;;;;;;;0.60;0.60;;;;;;;4.56;65.09;99348.91;4783638;30;20056;-82
2022/04/19 04:26:42;;;;;;;0.60;0.60;;;;;;;4.63;65.00;99356.13;4744287;30;20066;-81
2022/04/19 04:29:14;;;;;;;0.50;0.50;;;;;;;4.64;65.13;99350.59;4752820;30;20463;-81
2022/04/19 04:31:49;;;;;;;0.60;0.60;;;;;;;4.70;65.23;99357.81;4745133;30;20547;-79
2022/04/19 04:34:25;;;;;;;0.60;0.60;;;;;;;4.75;65.16;99358.03;4767678;30;20532;-82
2022/04/19 04:36:53;;;;;;;0.60;0.60;;;;;;;4.80;65.16;99360.13;4775489;30;20056;-82
2022/04/19 04:39:22;;;;;;;0.60;0.60;;;;;;;4.86;65.18;99361.16;4764431;30;20052;-80
2022/04/19 04:42:08;;;;;;;0.70;0.70;;;;;;;4.86;64.83;99359.34;4780551;30;20060;-82
2022/04/19 04:44:35;;;;;;;0.60;0.60;;;;;;;4.86;64.93;99355.81;4768127;30;20051;-82
2022/04/19 04:49:49;;;;;;;0.60;0.60;;;;;;;4.91;64.70;99366.75;4764680;30;20079;-82
2022/04/19 04:52:34;;;;;;;0.60;0.60;;;;;;;4.97;64.78;99371.31;4715257;29;10001123;-80
2022/04/19 04:55:05;;;;;;;0.60;0.60;;;;;;;4.97;64.60;99358.75;4773347;29;20266;-83
2022/04/19 04:57:35;;;;;;;0.60;0.60;;;;;;;5.05;64.51;99367.63;4756768;30;20066;-81
2022/04/19 05:00:05;;;;;;;0.60;0.60;;;;;;;5.06;64.46;99362.06;4773782;30;20428;-82
2022/04/19 05:03:02;;;;;;;0.60;0.60;;;;;;;5.09;64.48;99369.72;4779643;30;20056;-81
2022/04/19 05:05:31;;;;;;;0.60;0.60;;;;;;;5.16;64.45;99367.88;4741839;30;20085;-80
2022/04/19 05:08:12;;;;;;;0.60;0.60;;;;;;;5.25;64.26;99357.00;4764538;30;20056;-83
2022/04/19 05:10:57;;;;;;;0.60;0.60;;;;;;;5.27;63.96;99360.31;4776059;30;20240;-80
2022/04/19 05:13:26;;;;;;;0.52;0.52;;;;;;;5.28;64.33;99357.41;4768475;30;20113;-81
2022/04/19 05:15:54;;;;;;;0.60;0.60;;;;;;;5.34;63.94;99351.28;4765283;30;20058;-82
2022/04/19 05:18:22;;;;;;;0.60;0.60;;;;;;;5.34;63.96;99358.47;4776637;30;20051;-82
2022/04/19 05:20:52;;;;;;;0.60;0.60;;;;;;;5.37;63.83;99356.22;4779366;30;20051;-79
2022/04/19 05:23:20;;;;;;;0.60;0.60;;;;;;;5.46;63.61;99359.53;4766132;30;20142;-82
2022/04/19 05:25:48;;;;;;;0.60;0.60;;;;;;;5.49;63.47;99356.44;4765210;30;20128;-84
2022/04/19 05:28:15;;;;;;;0.50;0.50;;;;;;;5.50;63.39;99362.63;4779750;30;20075;-83
2022/04/19 05:30:53;;;;;;;0.55;0.55;;;;;;;5.43;63.93;99358.06;4764802;30;20195;-82
2022/04/19 05:33:25;;;;;;;0.60;0.60;;;;;;;5.57;63.61;99355.41;4764642;30;20055;-82
2022/04/19 05:35:52;;;;;;;0.60;0.60;;;;;;;5.69;63.15;99363.69;4765962;30;20059;-82
2022/04/19 05:38:20;;;;;;;0.60;0.60;;;;;;;5.80;62.87;99365.78;4766088;30;20429;-80
2022/04/19 05:40:47;;;;;;;0.60;0.60;;;;;;;5.80;62.78;99357.75;4765742;30;20129;-82
2022/04/19 05:43:14;;;;;;;0.60;0.60;;;;;;;5.84;62.65;99361.63;4764278;30;20589;-80
2022/04/19 05:45:43;;;;;;;0.50;0.50;;;;;;;5.91;62.73;99362.47;4758343;30;20062;-81
2022/04/19 05:48:10;;;;;;;0.60;0.60;;;;;;;6.04;62.32;99357.13;4778111;30;20058;-81
2022/04/19 05:50:37;;;;;;;0.60;0.60;;;;;;;6.03;62.34;99363.53;4764428;30;20052;-81
2022/04/19 05:53:05;;;;;;;0.60;0.60;;;;;;;6.03;62.39;99355.50;4775524;30;20055;-79
2022/04/19 05:55:32;;;;;;;0.60;0.60;;;;;;;6.14;62.41;99361.28;4758374;30;20068;-81
2022/04/19 05:58:00;;;;;;;0.60;0.60;;;;;;;6.17;62.09;99364.34;4758902;30;20051;-81
2022/04/19 06:00:28;;;;;;;0.50;0.50;;;;;;;6.23;61.98;99363.53;4781822;30;20067;-81
2022/04/19 06:05:46;;;;;;;0.60;0.60;;;;;;;6.47;61.62;99364.72;4776930;29;20051;-82
2022/04/19 06:08:14;;;;;;;0.70;0.70;;;;;;;6.68;61.18;99373.56;4755592;30;20079;-82
2022/04/19 06:10:43;;;;;;;0.60;0.60;;;;;;;6.90;60.38;99377.63;4778015;30;20059;-83
2022/04/19 06:13:12;;;;;;;0.70;0.70;;;;;;;7.09;60.17;99370.56;4749088;30;20055;-83
2022/04/19 06:15:40;;;;;;;0.60;0.60;;;;;;;7.31;59.39;99370.22;4761692;30;20078;-81
2022/04/19 06:18:09;;;;;;;0.60;0.60;;;;;;;7.40;58.41;99371.66;4761407;30;20140;-82
2022/04/19 06:20:46;;;;;;;0.60;0.60;;;;;;;7.54;58.25;99369.69;4778544;30;20071;-82
2022/04/19 06:23:13;;;;;;;0.70;0.70;;;;;;;7.60;57.82;99358.09;4761252;30;20052;-81
2022/04/19 06:25:41;;;;;;;0.60;0.60;;;;;;;7.70;57.72;99366.50;4765415;30;20067;-83
2022/04/19 06:28:11;;;;;;;0.60;0.60;;;;;;;7.67;57.50;99377.69;4761529;30;20044;-82
2022/04/19 06:30:58;;;;;;;0.60;0.60;;;;;;;7.72;57.17;99374.31;4760232;30;20444;-82
2022/04/19 06:33:31;;;;;;;0.60;0.60;;;;;;;7.95;57.00;99379.97;4763346;30;20060;-82
2022/04/19 06:36:00;;;;;;;0.60;0.60;;;;;;;8.14;56.84;99385.41;4775677;30;20086;-82
2022/04/19 06:38:27;;;;;;;0.60;0.60;;;;;;;8.00;56.93;99382.84;4761040;30;20056;-82
2022/04/19 06:40:59;;;;;;;0.60;0.60;;;;;;;8.00;56.69;99387.34;4775326;30;20047;-83
2022/04/19 06:43:27;;;;;;;0.60;0.60;;;;;;;7.97;56.90;99387.81;4753899;30;20052;-81
2022/04/19 06:45:59;;;;;;;0.60;0.60;;;;;;;7.97;56.97;99391.31;4761295;30;20062;-82
2022/04/19 06:48:31;;;;;;;0.60;0.60;;;;;;;8.10;56.74;99384.19;4748091;30;20067;-82
2022/04/19 06:51:00;;;;;;;0.60;0.60;;;;;;;8.14;56.42;99386.22;4762824;30;20056;-82
2022/04/19 06:53:47;;;;;;;0.60;0.60;;;;;;;8.22;56.25;99383.25;4761858;30;20138;-82
2022/04/19 06:56:27;;;;;;;0.60;0.60;;;;;;;8.45;55.74;99376.47;4757444;30;20403;-82
2022/04/19 06:58:56;;;;;;;0.60;0.60;;;;;;;8.49;55.60;99376.88;4761497;30;20051;-83
2022/04/19 07:01:23;;;;;;;0.70;0.70;;;;;;;8.52;55.47;99379.91;4761751;30;20607;-82
2022/04/19 07:04:10;;;;;;;0.70;0.70;;;;;;;8.62;55.18;99371.34;4759494;30;20431;-82
2022/04/19 07:06:51;;;;;;;0.70;0.70;;;;;;;8.85;55.03;99370.69;4762769;30;20059;-83
2022/04/19 07:09:19;;;;;;;0.50;0.50;;;;;;;8.69;54.90;99374.78;4763336;30;20079;-83
2022/04/19 07:11:47;;;;;;;0.60;0.60;;;;;;;8.42;55.67;99376.91;4768698;30;20056;-82
2022/04/19 07:14:17;;;;;;;0.60;0.60;;;;;;;8.40;56.29;99379.00;4773476;30;20524;-82
2022/04/19 07:16:59;;;;;;;0.60;0.60;;;;;;;8.27;56.56;99377.22;4758782;30;20052;-85
2022/04/19 07:26:37;;;;;;;0.57;0.57;;;;;;;8.12;57.08;99385.63;4763281;30;20072;-85
2022/04/19 07:28:06;;;;;;;0.60;0.60;;;;;;;8.17;57.37;99393.84;4780968;30;20094;-83
2022/04/19 07:30:46;;;;;;;0.50;0.50;;;;;;;8.11;57.48;99408.19;4773300;30;20128;-82
2022/04/19 07:33:16;;;;;;;0.50;0.50;;;;;;;8.04;57.65;99402.84;4766281;30;20059;-81
2022/04/19 07:35:46;;;;;;;0.50;0.50;;;;;;;7.94;57.98;99409.75;4780775;30;20171;-81
2022/04/19 07:38:13;;;;;;;0.50;0.50;;;;;;;7.77;58.36;99407.59;4758239;30;20082;-82
2022/04/19 07:40:55;;;;;;;0.50;0.50;;;;;;;7.64;58.92;99410.34;4783365;30;20059;-82
2022/04/19 07:43:23;;;;;;;0.50;0.50;;;;;;;7.57;59.09;99414.91;4770789;30;20443;-83
2022/04/19 07:45:50;;;;;;;0.45;0.45;;;;;;;7.58;59.30;99409.34;4764572;30;20469;-83
2022/04/19 07:48:18;;;;;;;0.47;0.47;;;;;;;7.63;59.13;99407.88;4762546;30;20134;-84
2022/04/19 07:50:45;;;;;;;0.50;0.50;;;;;;;7.61;59.30;99405.41;4758151;30;20062;-83
2022/04/19 07:53:12;;;;;;;0.60;0.60;;;;;;;7.67;59.30;99404.56;4767457;30;20135;-84
2022/04/19 07:55:39;;;;;;;0.50;0.50;;;;;;;7.72;59.33;99399.34;4779042;30;20076;-84
2022/04/19 07:58:08;;;;;;;0.50;0.50;;;;;;;7.73;59.38;99409.06;4774694;30;20056;-84
2022/04/19 08:00:38;;;;;;;0.50;0.50;;;;;;;7.72;59.48;99410.09;4774475;30;20088;-85
2022/04/19 08:03:05;;;;;;;0.55;0.55;;;;;;;7.65;59.63;99408.50;4779027;30;20121;-83
2022/04/19 08:05:33;;;;;;;0.60;0.60;;;;;;;7.65;59.88;99409.31;4764715;30;20526;-83
2022/04/19 08:08:00;;;;;;;0.50;0.50;;;;;;;7.79;59.42;99407.34;4759323;30;20105;-84
2022/04/19 08:10:27;;;;;;;0.50;0.50;;;;;;;7.82;59.42;99410.44;4767903;30;20584;-84
2022/04/19 08:13:00;;;;;;;0.50;0.50;;;;;;;8.00;59.04;99409.72;4757270;30;20054;-85
2022/04/19 08:15:27;;;;;;;0.50;0.50;;;;;;;8.04;58.91;99389.41;4768258;30;20063;-84
2022/04/19 08:17:55;;;;;;;0.50;0.50;;;;;;;8.20;58.34;99404.19;4751226;30;20698;-83
2022/04/19 08:20:23;;;;;;;0.50;0.50;;;;;;;8.21;58.52;99405.00;4780169;30;20137;-84
2022/04/19 08:22:51;;;;;;;0.40;0.40;;;;;;;8.11;58.63;99401.97;4780815;30;20093;-84
2022/04/19 08:25:23;;;;;;;0.50;0.50;;;;;;;7.99;59.13;99393.78;4769084;30;20055;-85
2022/04/19 08:27:51;;;;;;;0.50;0.50;;;;;;;7.96;59.26;99402.28;4769858;30;20067;-86
2022/04/19 08:30:19;;;;;;;0.50;0.50;;;;;;;7.99;59.20;99409.91;4783126;29;20071;-84
2022/04/19 08:32:48;;;;;;;0.50;0.50;;;;;;;8.02;59.25;99404.09;4783128;30;20547;-81
2022/04/19 08:35:19;;;;;;;0.50;0.50;;;;;;;8.10;59.09;99408.38;4782981;30;20424;-81
2022/04/19 08:37:46;;;;;;;0.50;0.50;;;;;;;8.15;58.71;99395.09;4768535;30;20089;-82
2022/04/19 08:40:16;;;;;;;0.50;0.50;;;;;;;8.30;58.68;99397.47;4767784;30;20534;-81
2022/04/19 08:42:46;;;;;;;0.60;0.60;;;;;;;8.34;58.40;99390.63;4777187;29;20070;-82
2022/04/19 08:45:15;;;;;;;0.52;0.52;;;;;;;8.45;58.42;99390.72;4766401;30;20067;-82
2022/04/19 08:47:43;;;;;;;0.60;0.60;;;;;;;8.73;57.80;99369.78;4769215;30;20059;-82
2022/04/19 08:50:17;;;;;;;0.50;0.50;;;;;;;8.87;57.57;99371.28;4767896;30;20520;-82
2022/04/19 08:52:45;;;;;;;0.55;0.55;;;;;;;8.94;57.44;99381.97;4771720;30;20087;-82
2022/04/19 08:57:58;;;;;;;0.60;0.60;;;;;;;9.26;56.71;99379.94;4769354;30;20059;-81
2022/04/19 09:00:27;;;;;;;0.60;0.60;;;;;;;9.28;56.72;99377.84;4779556;30;20142;-80
2022/04/19 09:02:59;;;;;;;0.50;0.50;;;;;;;9.24;57.07;99382.00;4776782;30;20536;-83
2022/04/19 09:05:28;;;;;;;0.50;0.50;;;;;;;9.27;56.94;99379.72;4772729;29;20086;-83
2022/04/19 09:07:57;;;;;;;0.50;0.50;;;;;;;9.30;57.22;99381.94;4768259;30;20135;-83
2022/04/19 09:10:32;;;;;;;0.50;0.50;;;;;;;9.39;57.02;99378.94;4774189;30;20151;-83
2022/04/19 09:13:05;;;;;;;0.50;0.50;;;;;;;9.46;56.71;99388.56;4767732;30;20544;-81
2022/04/19 09:15:35;;;;;;;0.50;0.50;;;;;;;9.44;56.91;99377.19;4769763;30;20797;-83
2022/04/19 09:18:03;;;;;;;0.50;0.50;;;;;;;9.43;56.95;99383.63;4768875;30;20131;-84
2022/04/19 09:20:31;;;;;;;0.60;0.60;;;;;;;9.62;56.88;99386.28;4767028;30;20052;-83
2022/04/19 09:23:07;;;;;;;0.60;0.60;;;;;;;9.86;56.32;99385.31;4760523;30;20067;-83
2022/04/19 09:25:35;;;;;;;0.50;0.50;;;;;;;9.99;55.76;99378.91;4767089;30;20171;-82
2022/04/19 09:28:05;;;;;;;0.60;0.60;;;;;;;10.02;56.21;99372.22;4768789;30;20051;-83
2022/04/19 09:30:34;;;;;;;0.60;0.60;;;;;;;9.92;56.79;99384.38;4768800;30;20091;-83
2022/04/19 09:33:15;;;;;;;0.60;0.60;;;;;;;9.82;57.56;99386.81;4767728;30;20065;-83
2022/04/19 09:35:44;;;;;;;0.50;0.50;;;;;;;9.80;57.74;99380.84;4781679;30;20060;-83
2022/04/19 09:38:12;;;;;;;0.50;0.50;;;;;;;9.82;57.56;99383.31;4767226;30;20079;-83
2022/04/19 09:40:45;;;;;;;0.50;0.50;;;;;;;9.77;57.50;99384.84;4768938;30;20166;-82
2022/04/19 09:43:32;;;;;;;0.50;0.50;;;;;;;9.75;57.72;99404.97;4772514;30;20500;-84
2022/04/19 09:46:04;;;;;;;0.50;0.50;;;;;;;9.68;57.97;99398.84;4776793;30;20052;-84
2022/04/19 09:48:35;;;;;;;0.40;0.40;;;;;;;9.60;58.24;99401.88;4774902;30;20400;-82
2022/04/19 09:51:08;;;;;;;0.50;0.50;;;;;;;9.59;58.44;99400.22;4774885;30;20100;-83
2022/04/19 09:53:43;;;;;;;0.50;0.50;;;;;;;9.55;58.55;99398.00;4748039;30;20059;-85
2022/04/19 09:56:11;;;;;;;0.50;0.50;;;;;;;9.67;58.34;99408.81;4774189;30;20143;-82
2022/04/19 09:58:39;;;;;;;0.50;0.50;;;;;;;9.70;58.62;99404.84;4776103;30;20117;-83
2022/04/19 10:08:10;;;;;;;0.50;0.50;;;;;;;9.65;58.52;99407.41;4770335;30;20184;-82
2022/04/19 10:09:33;;;;;;;0.50;0.50;;;;;;;10.05;57.58;99404.09;4771536;30;20051;-83
2022/04/19 10:12:08;;;;;;;0.50;0.50;;;;;;;10.26;57.04;99400.06;4772683;30;20154;-84
2022/04/19 10:14:36;;;;;;;0.50;0.50;;;;;;;10.30;56.62;99404.75;4772962;30;20153;-83
2022/04/19 10:17:04;;;;;;;0.50;0.50;;;;;;;10.36;56.33;99395.75;4772761;30;20056;-83
2022/04/19 10:19:32;;;;;;;0.50;0.50;;;;;;;10.53;56.06;99406.69;4764955;30;20055;-84
2022/04/19 10:22:07;;;;;;;0.50;0.50;;;;;;;10.79;55.42;99409.97;4773507;30;20515;-83
2022/04/19 10:24:52;;;;;;;0.50;0.50;;;;;;;10.97;54.88;99396.31;4772586;30;20096;-83
2022/04/19 10:27:19;;;;;;;;;;;;;;;11.00;54.46;99405.81;4778138;30;20069;-83
2022/04/19 10:29:51;;;;;;;0.50;0.50;;;;;;;11.00;54.71;99400.41;4774302;30;20003;-84
2022/04/19 10:32:28;;;;;;;0.50;0.50;;;;;;;11.15;54.13;99399.91;4781264;29;20112;-82
2022/04/19 10:35:00;;;;;;;0.60;0.60;;;;;;;11.31;53.55;99403.75;4765863;30;20104;-82
2022/04/19 10:37:29;;;;;;;0.60;0.60;;;;;;;11.68;52.91;99399.63;4780740;30;20059;-83
2022/04/19 10:39:59;;;;;;;0.80;0.80;;;;;;;12.49;51.29;99398.56;4767545;30;20477;-84
2022/04/19 10:42:33;;;;;;;0.70;0.70;;;;;;;13.61;48.83;99391.13;4782386;30;20082;-83
2022/04/19 10:45:20;;;;;;;0.63;0.63;;;;;;;14.20;47.51;99390.31;4782611;29;20059;-82
2022/04/19 10:47:58;;;;;;;0.70;0.70;;;;;;;14.35;46.75;99389.63;4767398;30;20441;-83
2022/04/19 10:50:39;;;;;;;0.65;0.65;;;;;;;14.50;46.07;99387.00;4782156;30;20137;-82
2022/04/19 10:53:08;;;;;;;0.80;0.80;;;;;;;14.96;44.96;99395.47;4742819;30;20494;-82
2022/04/19 10:55:37;;;;;;;0.50;0.50;;;;;;;14.74;45.37;99388.28;4787467;30;20088;-84
2022/04/19 10:58:23;;;;;;;0.70;0.70;;;;;;;14.73;45.63;99394.78;4786722;30;20079;-84
2022/04/19 11:00:51;;;;;;;0.50;0.50;;;;;;;14.53;45.75;99383.78;4785133;30;20057;-82
2022/04/19 11:03:28;;;;;;;0.50;0.50;;;;;;;14.20;46.40;99388.41;4759307;30;20081;-84
2022/04/19 11:05:57;;;;;;;0.90;0.90;;;;;;;15.04;45.06;99375.97;4753268;30;20588;-87
2022/04/19 11:08:27;;;;;;;0.90;0.90;;;;;;;17.08;40.91;99374.50;4752828;30;20087;-83
2022/04/19 11:10:57;;;;;;;0.70;0.70;;;;;;;17.93;38.88;99366.16;4768916;30;20087;-84
2022/04/19 11:13:38;;;;;;;0.90;0.90;;;;;;;18.14;38.77;99372.25;4767129;30;20055;-87
2022/04/19 11:16:05;;;;;;;0.90;0.90;;;;;;;18.77;37.52;99365.97;4773171;30;20125;-88
2022/04/19 11:18:41;;;;;;;0.75;0.75;;;;;;;19.36;36.35;99371.31;4772006;30;20048;-88
2022/04/19 11:21:56;;;;;;;0.63;0.63;;;;;;;19.46;36.12;99361.03;4753937;30;20101;-88
2022/04/19 11:24:58;;;;;;;0.80;0.80;;;;;;;19.75;35.61;99357.38;4779876;29;20060;-86
2022/04/19 11:27:54;;;;;;;0.70;0.70;;;;;;;19.85;35.22;99346.28;4767121;30;20056;-86
2022/04/19 11:30:23;;;;;;;0.80;0.80;;;;;;;19.61;35.22;99354.53;4755191;30;20051;-86
2022/04/19 11:32:52;;;;;;;0.70;0.70;;;;;;;20.10;34.43;99341.47;4753447;30;20059;-86
2022/04/19 11:35:20;;;;;;;0.70;0.70;;;;;;;19.71;34.52;99345.38;4782541;30;20062;-86
2022/04/19 11:37:48;;;;;;;0.80;0.80;;;;;;;19.42;35.15;99340.84;4774240;30;20548;-87
2022/04/19 11:48:48;;;;;;;0.40;0.40;;;;;;;21.06;31.88;99345.50;4759404;30;20087;-85
2022/04/19 11:51:17;;;;;;;0.30;0.30;;;;;;;20.04;33.36;99343.50;4770210;30;20066;-83
2022/04/19 11:53:45;;;;;;;0.40;0.40;;;;;;;18.57;35.93;99349.75;4770506;30;20081;-83
2022/04/19 11:56:12;;;;;;;0.30;0.30;;;;;;;18.05;36.55;99354.03;4770046;30;20397;-85
2022/04/19 11:58:41;;;;;;;0.40;0.40;;;;;;;17.81;37.15;99354.75;4769375;30;20142;-85
2022/04/19 12:01:10;;;;;;;0.40;0.40;;;;;;;17.46;37.24;99353.84;4768761;30;20079;-84
2022/04/19 12:03:39;;;;;;;0.38;0.38;;;;;;;17.10;38.24;99358.66;4768330;30;20087;-83
2022/04/19 12:06:11;;;;;;;0.32;0.32;;;;;;;16.49;38.84;99361.53;4770040;30;20432;-83
2022/04/19 12:08:43;;;;;;;0.32;0.32;;;;;;;15.86;40.05;99348.19;4770451;30;20097;-85
2022/04/19 12:11:15;;;;;;;0.40;0.40;;;;;;;15.64;40.42;99356.56;4770240;30;20142;-85
2022/04/19 12:13:46;;;;;;;0.32;0.32;;;;;;;15.42;40.84;99354.91;4769606;30;20055;-85
2022/04/19 12:16:37;;;;;;;0.30;0.30;;;;;;;15.13;41.67;99355.31;4770346;30;20484;-85
2022/04/19 12:19:09;;;;;;;0.40;0.40;;;;;;;14.74;42.35;99350.25;4771188;30;20211;-86
2022/04/19 12:21:44;;;;;;;0.40;0.40;;;;;;;14.70;42.42;99354.56;4770595;30;20051;-82
2022/04/19 12:24:17;;;;;;;0.40;0.40;;;;;;;14.66;42.71;99355.34;4769979;30;20055;-85
2022/04/19 12:26:44;;;;;;;0.40;0.40;;;;;;;14.82;42.46;99353.56;4769855;30;20089;-86
2022/04/19 12:29:13;;;;;;;0.40;0.40;;;;;;;14.74;42.64;99352.16;4769887;30;20095;-84
2022/04/19 12:31:43;;;;;;;0.40;0.40;;;;;;;14.68;42.48;99348.56;4783991;30;20501;-83
2022/04/19 12:34:12;;;;;;;0.40;0.40;;;;;;;14.62;42.71;99349.66;4769788;30;20142;-84